Dallas-Fort Worth International Airport (DFW/KDFW)




Flight Aircraft Arriving
CPX2297 B744
B763
KSDF - Louisville International Airport-Standiford Field
United StatesKentucky Louisville, Kentucky
Flight Aircraft Departing
CPX2294 B744
B763
KSDF - Louisville International Airport-Standiford Field
United StatesKentucky Louisville, Kentucky
Airport Information
Location: Dallas, US
Coordinates: 32.8972 / -97.0377
Elevation:
Time Offset:
Local Time:
UTC Time:
Jet A Price: $0.79/lbs

Current Weather
METAR: KDFW 221353Z 07010KT 5SM BR BKN010 OVC016 09/08 A2997 RMK AO2 RAB32E44 SLP146 P0000 T00940083
TAF: KDFW 221307Z 2213/2318 06006KT 5SM BR BKN011 TEMPO 2213/2215 BKN007 FM221700 03005KT P6SM OVC015 FM231200 09006KT P6SM OVC008

Recent Arrivals
Date Flight Type Depart
10/12/2020 CPX2294 B763 Louisville International Airport-Standiford Field (KSDF)
Recent Departures

Warning: Invalid argument supplied for foreach() in /var/www/capitollogistics/lib/skins/urban/hub/aptview.php on line 268
Date Flight Type Arrive